sensor_id;sensor_type;location;lat;lon;timestamp;temperature;humidity
11152;DHT22;5630;49.342;10.802;2022-10-31T00:01:22;14.00;99.90
11152;DHT22;5630;49.342;10.802;2022-10-31T00:03:48;14.00;99.90
11152;DHT22;5630;49.342;10.802;2022-10-31T00:06:14;13.90;99.90
11152;DHT22;5630;49.342;10.802;2022-10-31T00:08:39;13.90;99.90
11152;DHT22;5630;49.342;10.802;2022-10-31T00:11:08;13.80;99.90
11152;DHT22;5630;49.342;10.802;2022-10-31T00:13:34;13.70;99.90
11152;DHT22;5630;49.342;10.802;2022-10-31T00:16:00;13.70;99.90
11152;DHT22;5630;49.342;10.802;2022-10-31T00:18:25;13.70;99.90
11152;DHT22;5630;49.342;10.802;2022-10-31T00:21:01;13.60;99.90
11152;DHT22;5630;49.342;10.802;2022-10-31T00:23:28;13.60;99.90
11152;DHT22;5630;49.342;10.802;2022-10-31T00:25:53;13.60;99.90
11152;DHT22;5630;49.342;10.802;2022-10-31T00:28:19;13.60;99.90
11152;DHT22;5630;49.342;10.802;2022-10-31T00:30:44;13.60;99.90
11152;DHT22;5630;49.342;10.802;2022-10-31T00:33:10;13.50;99.90
11152;DHT22;5630;49.342;10.802;2022-10-31T00:35:36;13.40;99.90
11152;DHT22;5630;49.342;10.802;2022-10-31T00:38:01;13.40;99.90
11152;DHT22;5630;49.342;10.802;2022-10-31T00:40:27;13.40;99.90
11152;DHT22;5630;49.342;10.802;2022-10-31T00:42:52;13.40;99.90
11152;DHT22;5630;49.342;10.802;2022-10-31T00:45:18;13.40;99.90
11152;DHT22;5630;49.342;10.802;2022-10-31T00:47:43;13.30;99.90
11152;DHT22;5630;49.342;10.802;2022-10-31T00:50:09;13.30;99.90
11152;DHT22;5630;49.342;10.802;2022-10-31T00:52:35;13.30;99.90
11152;DHT22;5630;49.342;10.802;2022-10-31T00:55:00;13.30;99.90
11152;DHT22;5630;49.342;10.802;2022-10-31T00:59:52;13.30;99.90
11152;DHT22;5630;49.342;10.802;2022-10-31T01:02:18;13.20;99.90
11152;DHT22;5630;49.342;10.802;2022-10-31T01:04:43;13.20;99.90
11152;DHT22;5630;49.342;10.802;2022-10-31T01:07:09;13.20;99.90
11152;DHT22;5630;49.342;10.802;2022-10-31T01:09:37;13.20;99.90
11152;DHT22;5630;49.342;10.802;2022-10-31T01:12:03;13.10;99.90
11152;DHT22;5630;49.342;10.802;2022-10-31T01:14:28;13.10;99.90
11152;DHT22;5630;49.342;10.802;2022-10-31T01:16:54;13.00;99.90
11152;DHT22;5630;49.342;10.802;2022-10-31T01:19:19;13.00;99.90
11152;DHT22;5630;49.342;10.802;2022-10-31T01:21:45;13.00;99.90
11152;DHT22;5630;49.342;10.802;2022-10-31T01:24:10;12.90;99.90
11152;DHT22;5630;49.342;10.802;2022-10-31T01:26:36;12.90;99.90
11152;DHT22;5630;49.342;10.802;2022-10-31T01:29:05;12.90;99.90
11152;DHT22;5630;49.342;10.802;2022-10-31T01:31:34;12.90;99.90
11152;DHT22;5630;49.342;10.802;2022-10-31T01:34:01;12.90;99.90
11152;DHT22;5630;49.342;10.802;2022-10-31T01:36:35;12.90;99.90
11152;DHT22;5630;49.342;10.802;2022-10-31T01:39:07;12.90;99.90
11152;DHT22;5630;49.342;10.802;2022-10-31T01:41:36;12.90;99.90
11152;DHT22;5630;49.342;10.802;2022-10-31T01:44:03;12.90;99.90
11152;DHT22;5630;49.342;10.802;2022-10-31T01:46:54;12.80;99.90
11152;DHT22;5630;49.342;10.802;2022-10-31T01:51:58;12.80;99.90
11152;DHT22;5630;49.342;10.802;2022-10-31T01:54:29;12.80;99.90
11152;DHT22;5630;49.342;10.802;2022-10-31T01:56:57;12.80;99.90
11152;DHT22;5630;49.342;10.802;2022-10-31T01:59:27;12.80;99.90
11152;DHT22;5630;49.342;10.802;2022-10-31T02:01:53;12.70;99.90
11152;DHT22;5630;49.342;10.802;2022-10-31T02:04:20;12.70;99.90
11152;DHT22;5630;49.342;10.802;2022-10-31T02:06:59;12.70;99.90
11152;DHT22;5630;49.342;10.802;2022-10-31T02:09:29;12.70;99.90
11152;DHT22;5630;49.342;10.802;2022-10-31T02:11:57;12.70;99.90
11152;DHT22;5630;49.342;10.802;2022-10-31T02:14:26;12.60;99.90
11152;DHT22;5630;49.342;10.802;2022-10-31T02:16:57;12.60;99.90
11152;DHT22;5630;49.342;10.802;2022-10-31T02:22:20;12.60;99.90
11152;DHT22;5630;49.342;10.802;2022-10-31T02:32:54;12.50;99.90
11152;DHT22;5630;49.342;10.802;2022-10-31T02:35:50;12.50;99.90
11152;DHT22;5630;49.342;10.802;2022-10-31T02:38:38;12.50;99.90
11152;DHT22;5630;49.342;10.802;2022-10-31T02:41:20;12.50;99.90
11152;DHT22;5630;49.342;10.802;2022-10-31T02:46:55;12.40;99.90
11152;DHT22;5630;49.342;10.802;2022-10-31T02:49:36;12.40;99.90
11152;DHT22;5630;49.342;10.802;2022-10-31T02:52:34;12.40;99.90
11152;DHT22;5630;49.342;10.802;2022-10-31T02:55:08;12.30;99.90
11152;DHT22;5630;49.342;10.802;2022-10-31T02:57:34;12.30;99.90
11152;DHT22;5630;49.342;10.802;2022-10-31T03:00:05;12.30;99.90
11152;DHT22;5630;49.342;10.802;2022-10-31T03:02:58;12.30;99.90
11152;DHT22;5630;49.342;10.802;2022-10-31T03:05:54;12.20;99.90
11152;DHT22;5630;49.342;10.802;2022-10-31T03:08:34;12.20;99.90
11152;DHT22;5630;49.342;10.802;2022-10-31T03:11:03;12.10;99.90
11152;DHT22;5630;49.342;10.802;2022-10-31T03:16:18;12.10;99.90
11152;DHT22;5630;49.342;10.802;2022-10-31T03:19:05;12.10;99.90
11152;DHT22;5630;49.342;10.802;2022-10-31T03:21:59;12.10;99.90
11152;DHT22;5630;49.342;10.802;2022-10-31T03:24:30;12.00;99.90
11152;DHT22;5630;49.342;10.802;2022-10-31T03:26:58;12.00;99.90
11152;DHT22;5630;49.342;10.802;2022-10-31T03:29:28;11.90;99.90
11152;DHT22;5630;49.342;10.802;2022-10-31T03:31:58;11.80;99.90
11152;DHT22;5630;49.342;10.802;2022-10-31T03:34:25;11.90;99.90
11152;DHT22;5630;49.342;10.802;2022-10-31T03:36:53;11.80;99.90
11152;DHT22;5630;49.342;10.802;2022-10-31T03:39:21;11.80;99.90
11152;DHT22;5630;49.342;10.802;2022-10-31T03:42:05;11.80;99.90
11152;DHT22;5630;49.342;10.802;2022-10-31T03:44:33;11.80;99.90
11152;DHT22;5630;49.342;10.802;2022-10-31T03:47:00;11.80;99.90
11152;DHT22;5630;49.342;10.802;2022-10-31T03:49:27;11.80;99.90
11152;DHT22;5630;49.342;10.802;2022-10-31T03:54:45;11.80;99.90
11152;DHT22;5630;49.342;10.802;2022-10-31T03:59:58;11.80;99.90
11152;DHT22;5630;49.342;10.802;2022-10-31T04:02:28;11.80;99.90
11152;DHT22;5630;49.342;10.802;2022-10-31T04:04:56;11.80;99.90
11152;DHT22;5630;49.342;10.802;2022-10-31T04:07:25;11.80;99.90
11152;DHT22;5630;49.342;10.802;2022-10-31T04:09:53;11.80;99.90
11152;DHT22;5630;49.342;10.802;2022-10-31T04:12:20;11.80;99.90
11152;DHT22;5630;49.342;10.802;2022-10-31T04:14:48;11.80;99.90
11152;DHT22;5630;49.342;10.802;2022-10-31T04:17:18;11.80;99.90
11152;DHT22;5630;49.342;10.802;2022-10-31T04:19:44;11.80;99.90
11152;DHT22;5630;49.342;10.802;2022-10-31T04:22:10;11.80;99.90
11152;DHT22;5630;49.342;10.802;2022-10-31T04:24:38;11.80;99.90
11152;DHT22;5630;49.342;10.802;2022-10-31T04:27:04;11.80;99.90
11152;DHT22;5630;49.342;10.802;2022-10-31T04:29:30;11.80;99.90
11152;DHT22;5630;49.342;10.802;2022-10-31T04:31:55;11.80;99.90
11152;DHT22;5630;49.342;10.802;2022-10-31T04:34:21;11.80;99.90
11152;DHT22;5630;49.342;10.802;2022-10-31T04:36:46;11.80;99.90
11152;DHT22;5630;49.342;10.802;2022-10-31T04:39:12;11.80;99.90
11152;DHT22;5630;49.342;10.802;2022-10-31T04:41:38;11.80;99.90
11152;DHT22;5630;49.342;10.802;2022-10-31T04:44:03;11.80;99.90
11152;DHT22;5630;49.342;10.802;2022-10-31T04:46:29;11.70;99.90
11152;DHT22;5630;49.342;10.802;2022-10-31T04:48:54;11.70;99.90
11152;DHT22;5630;49.342;10.802;2022-10-31T04:51:20;11.70;99.90
11152;DHT22;5630;49.342;10.802;2022-10-31T04:53:45;11.70;99.90
11152;DHT22;5630;49.342;10.802;2022-10-31T04:56:11;11.70;99.90
11152;DHT22;5630;49.342;10.802;2022-10-31T04:58:36;11.70;99.90
11152;DHT22;5630;49.342;10.802;2022-10-31T05:01:02;11.60;99.90
11152;DHT22;5630;49.342;10.802;2022-10-31T05:03:27;11.60;99.90
11152;DHT22;5630;49.342;10.802;2022-10-31T05:05:53;11.60;99.90
11152;DHT22;5630;49.342;10.802;2022-10-31T05:08:18;11.60;99.90
11152;DHT22;5630;49.342;10.802;2022-10-31T05:10:44;11.60;99.90
11152;DHT22;5630;49.342;10.802;2022-10-31T05:13:10;11.60;99.90
11152;DHT22;5630;49.342;10.802;2022-10-31T05:15:35;11.60;99.90
11152;DHT22;5630;49.342;10.802;2022-10-31T05:18:01;11.60;99.90
11152;DHT22;5630;49.342;10.802;2022-10-31T05:20:29;11.60;99.90
11152;DHT22;5630;49.342;10.802;2022-10-31T05:22:56;11.50;99.90
11152;DHT22;5630;49.342;10.802;2022-10-31T05:25:24;11.50;99.90
11152;DHT22;5630;49.342;10.802;2022-10-31T05:27:51;11.50;99.90
11152;DHT22;5630;49.342;10.802;2022-10-31T05:30:19;11.50;99.90
11152;DHT22;5630;49.342;10.802;2022-10-31T05:32:47;11.40;99.90
11152;DHT22;5630;49.342;10.802;2022-10-31T05:35:16;11.40;99.90
11152;DHT22;5630;49.342;10.802;2022-10-31T05:37:42;11.40;99.90
11152;DHT22;5630;49.342;10.802;2022-10-31T05:40:10;11.40;99.90
11152;DHT22;5630;49.342;10.802;2022-10-31T05:42:38;11.40;99.90
11152;DHT22;5630;49.342;10.802;2022-10-31T05:45:05;11.40;99.90
11152;DHT22;5630;49.342;10.802;2022-10-31T05:47:30;11.30;99.90
11152;DHT22;5630;49.342;10.802;2022-10-31T05:49:56;11.30;99.90
11152;DHT22;5630;49.342;10.802;2022-10-31T05:52:21;11.30;99.90
11152;DHT22;5630;49.342;10.802;2022-10-31T05:54:47;11.20;99.90
11152;DHT22;5630;49.342;10.802;2022-10-31T05:57:12;11.20;99.90
11152;DHT22;5630;49.342;10.802;2022-10-31T05:59:38;11.20;99.90
11152;DHT22;5630;49.342;10.802;2022-10-31T06:02:03;11.20;99.90
11152;DHT22;5630;49.342;10.802;2022-10-31T06:04:29;11.10;99.90
11152;DHT22;5630;49.342;10.802;2022-10-31T06:06:56;11.10;99.90
11152;DHT22;5630;49.342;10.802;2022-10-31T06:09:22;11.10;99.90
11152;DHT22;5630;49.342;10.802;2022-10-31T06:11:47;11.10;99.90
11152;DHT22;5630;49.342;10.802;2022-10-31T06:14:13;11.10;99.90
11152;DHT22;5630;49.342;10.802;2022-10-31T06:16:38;11.10;99.90
11152;DHT22;5630;49.342;10.802;2022-10-31T06:19:04;11.10;99.90
11152;DHT22;5630;49.342;10.802;2022-10-31T06:21:29;11.00;99.90
11152;DHT22;5630;49.342;10.802;2022-10-31T06:23:55;11.00;99.90
11152;DHT22;5630;49.342;10.802;2022-10-31T06:26:21;11.00;99.90
11152;DHT22;5630;49.342;10.802;2022-10-31T06:28:46;11.00;99.90
11152;DHT22;5630;49.342;10.802;2022-10-31T06:31:12;11.00;99.90
11152;DHT22;5630;49.342;10.802;2022-10-31T06:33:37;11.00;99.90
11152;DHT22;5630;49.342;10.802;2022-10-31T06:36:03;11.00;99.90
11152;DHT22;5630;49.342;10.802;2022-10-31T06:38:29;11.00;99.90
11152;DHT22;5630;49.342;10.802;2022-10-31T06:40:54;11.00;99.90
11152;DHT22;5630;49.342;10.802;2022-10-31T06:43:21;11.00;99.90
11152;DHT22;5630;49.342;10.802;2022-10-31T06:45:47;11.00;99.90
11152;DHT22;5630;49.342;10.802;2022-10-31T06:48:12;11.00;99.90
11152;DHT22;5630;49.342;10.802;2022-10-31T06:50:38;11.10;99.90
11152;DHT22;5630;49.342;10.802;2022-10-31T06:53:03;11.10;99.90
11152;DHT22;5630;49.342;10.802;2022-10-31T06:55:29;11.10;99.90
11152;DHT22;5630;49.342;10.802;2022-10-31T06:57:56;11.90;99.90
11152;DHT22;5630;49.342;10.802;2022-10-31T07:00:22;12.70;99.90
11152;DHT22;5630;49.342;10.802;2022-10-31T07:03:04;13.30;99.90
11152;DHT22;5630;49.342;10.802;2022-10-31T07:05:31;13.60;99.90
11152;DHT22;5630;49.342;10.802;2022-10-31T07:08:01;14.00;99.90
11152;DHT22;5630;49.342;10.802;2022-10-31T07:10:30;14.40;99.90
11152;DHT22;5630;49.342;10.802;2022-10-31T07:13:00;14.70;99.90
11152;DHT22;5630;49.342;10.802;2022-10-31T07:15:27;14.60;99.90
11152;DHT22;5630;49.342;10.802;2022-10-31T07:17:53;14.40;99.90
11152;DHT22;5630;49.342;10.802;2022-10-31T07:20:19;14.10;99.90
11152;DHT22;5630;49.342;10.802;2022-10-31T07:22:45;13.90;99.90
11152;DHT22;5630;49.342;10.802;2022-10-31T07:25:11;13.60;99.90
11152;DHT22;5630;49.342;10.802;2022-10-31T07:27:38;13.30;99.90
11152;DHT22;5630;49.342;10.802;2022-10-31T07:30:04;13.20;99.90
11152;DHT22;5630;49.342;10.802;2022-10-31T07:32:40;13.10;99.90
11152;DHT22;5630;49.342;10.802;2022-10-31T07:35:10;13.00;99.90
11152;DHT22;5630;49.342;10.802;2022-10-31T07:37:36;12.90;99.90
11152;DHT22;5630;49.342;10.802;2022-10-31T07:40:03;12.90;99.90
11152;DHT22;5630;49.342;10.802;2022-10-31T07:42:29;12.80;99.90
11152;DHT22;5630;49.342;10.802;2022-10-31T07:44:54;12.70;99.90
11152;DHT22;5630;49.342;10.802;2022-10-31T07:47:20;12.80;99.90
11152;DHT22;5630;49.342;10.802;2022-10-31T07:49:45;12.80;99.90
11152;DHT22;5630;49.342;10.802;2022-10-31T07:52:11;12.90;99.90
11152;DHT22;5630;49.342;10.802;2022-10-31T07:54:36;12.90;99.90
11152;DHT22;5630;49.342;10.802;2022-10-31T07:57:02;12.90;99.90
11152;DHT22;5630;49.342;10.802;2022-10-31T07:59:27;12.90;99.90
11152;DHT22;5630;49.342;10.802;2022-10-31T08:01:53;13.00;99.90
11152;DHT22;5630;49.342;10.802;2022-10-31T08:04:19;13.10;99.90
11152;DHT22;5630;49.342;10.802;2022-10-31T08:06:44;13.10;99.90
11152;DHT22;5630;49.342;10.802;2022-10-31T08:09:10;13.20;99.90
11152;DHT22;5630;49.342;10.802;2022-10-31T08:11:35;13.30;99.90
11152;DHT22;5630;49.342;10.802;2022-10-31T08:14:01;13.30;99.90
11152;DHT22;5630;49.342;10.802;2022-10-31T08:16:26;13.40;99.90
11152;DHT22;5630;49.342;10.802;2022-10-31T08:18:52;13.50;99.90
11152;DHT22;5630;49.342;10.802;2022-10-31T08:21:21;13.60;99.90
11152;DHT22;5630;49.342;10.802;2022-10-31T08:23:47;13.70;99.90
11152;DHT22;5630;49.342;10.802;2022-10-31T08:26:12;13.80;99.90
11152;DHT22;5630;49.342;10.802;2022-10-31T08:28:38;13.90;99.90
11152;DHT22;5630;49.342;10.802;2022-10-31T08:31:04;13.90;99.90
11152;DHT22;5630;49.342;10.802;2022-10-31T08:33:30;14.00;99.90
11152;DHT22;5630;49.342;10.802;2022-10-31T08:35:57;14.10;99.90
11152;DHT22;5630;49.342;10.802;2022-10-31T08:38:23;14.20;99.90
11152;DHT22;5630;49.342;10.802;2022-10-31T08:40:49;14.20;99.90
11152;DHT22;5630;49.342;10.802;2022-10-31T08:43:16;14.30;99.90
11152;DHT22;5630;49.342;10.802;2022-10-31T08:45:43;14.40;99.90
11152;DHT22;5630;49.342;10.802;2022-10-31T08:48:13;14.60;99.90
11152;DHT22;5630;49.342;10.802;2022-10-31T08:50:40;14.70;99.90
11152;DHT22;5630;49.342;10.802;2022-10-31T08:53:09;14.70;99.90
11152;DHT22;5630;49.342;10.802;2022-10-31T08:55:36;14.80;99.90
11152;DHT22;5630;49.342;10.802;2022-10-31T08:58:04;14.90;99.90
11152;DHT22;5630;49.342;10.802;2022-10-31T09:00:30;15.10;99.90
11152;DHT22;5630;49.342;10.802;2022-10-31T09:03:02;15.20;99.90
11152;DHT22;5630;49.342;10.802;2022-10-31T09:05:28;15.20;99.90
11152;DHT22;5630;49.342;10.802;2022-10-31T09:08:01;15.30;99.90
11152;DHT22;5630;49.342;10.802;2022-10-31T09:10:28;15.40;99.90
11152;DHT22;5630;49.342;10.802;2022-10-31T09:12:58;15.50;99.90
11152;DHT22;5630;49.342;10.802;2022-10-31T09:15:25;15.50;99.90
11152;DHT22;5630;49.342;10.802;2022-10-31T09:17:51;15.60;99.90
11152;DHT22;5630;49.342;10.802;2022-10-31T09:20:17;15.70;99.90
11152;DHT22;5630;49.342;10.802;2022-10-31T09:22:43;15.80;99.90
11152;DHT22;5630;49.342;10.802;2022-10-31T09:25:08;15.80;99.90
11152;DHT22;5630;49.342;10.802;2022-10-31T09:27:34;15.90;99.90
11152;DHT22;5630;49.342;10.802;2022-10-31T09:30:00;16.00;99.90
11152;DHT22;5630;49.342;10.802;2022-10-31T09:32:25;16.10;99.90
11152;DHT22;5630;49.342;10.802;2022-10-31T09:34:51;16.10;99.90
11152;DHT22;5630;49.342;10.802;2022-10-31T09:37:16;16.30;99.90
11152;DHT22;5630;49.342;10.802;2022-10-31T09:39:42;16.40;99.90
11152;DHT22;5630;49.342;10.802;2022-10-31T09:54:05;17.10;99.90
11152;DHT22;5630;49.342;10.802;2022-10-31T09:56:23;17.30;99.90
11152;DHT22;5630;49.342;10.802;2022-10-31T09:58:54;17.50;99.90
11152;DHT22;5630;49.342;10.802;2022-10-31T10:01:30;17.70;99.90
11152;DHT22;5630;49.342;10.802;2022-10-31T10:04:19;17.80;99.90
11152;DHT22;5630;49.342;10.802;2022-10-31T10:06:49;17.80;99.90
11152;DHT22;5630;49.342;10.802;2022-10-31T10:09:16;18.00;99.90
11152;DHT22;5630;49.342;10.802;2022-10-31T10:14:56;18.10;99.90
11152;DHT22;5630;49.342;10.802;2022-10-31T10:17:39;18.30;99.90
11152;DHT22;5630;49.342;10.802;2022-10-31T10:20:18;18.40;99.90
11152;DHT22;5630;49.342;10.802;2022-10-31T10:23:23;18.40;99.90
11152;DHT22;5630;49.342;10.802;2022-10-31T10:26:17;18.60;99.90
11152;DHT22;5630;49.342;10.802;2022-10-31T10:28:50;18.70;99.90
11152;DHT22;5630;49.342;10.802;2022-10-31T10:31:21;18.70;99.90
11152;DHT22;5630;49.342;10.802;2022-10-31T10:36:26;18.90;99.90
11152;DHT22;5630;49.342;10.802;2022-10-31T10:39:03;19.10;99.90
11152;DHT22;5630;49.342;10.802;2022-10-31T10:41:33;19.30;99.90
11152;DHT22;5630;49.342;10.802;2022-10-31T10:43:58;19.40;99.90
11152;DHT22;5630;49.342;10.802;2022-10-31T10:46:42;19.40;99.90
11152;DHT22;5630;49.342;10.802;2022-10-31T10:49:35;19.30;99.90
11152;DHT22;5630;49.342;10.802;2022-10-31T10:55:21;19.30;99.90
11152;DHT22;5630;49.342;10.802;2022-10-31T10:58:03;19.20;99.90
11152;DHT22;5630;49.342;10.802;2022-10-31T11:00:45;19.20;99.90
11152;DHT22;5630;49.342;10.802;2022-10-31T11:03:16;19.10;99.90
11152;DHT22;5630;49.342;10.802;2022-10-31T11:05:53;19.10;99.90
11152;DHT22;5630;49.342;10.802;2022-10-31T11:08:25;19.10;99.90
11152;DHT22;5630;49.342;10.802;2022-10-31T11:13:28;19.10;99.90
11152;DHT22;5630;49.342;10.802;2022-10-31T11:16:07;19.10;99.90
11152;DHT22;5630;49.342;10.802;2022-10-31T11:18:37;19.10;99.90
11152;DHT22;5630;49.342;10.802;2022-10-31T11:21:04;19.10;99.90
11152;DHT22;5630;49.342;10.802;2022-10-31T11:23:31;19.20;99.90
11152;DHT22;5630;49.342;10.802;2022-10-31T11:26:02;19.10;99.90
11152;DHT22;5630;49.342;10.802;2022-10-31T11:28:29;19.20;99.90
11152;DHT22;5630;49.342;10.802;2022-10-31T11:31:11;19.20;99.90
11152;DHT22;5630;49.342;10.802;2022-10-31T11:36:29;19.20;99.90
11152;DHT22;5630;49.342;10.802;2022-10-31T11:38:55;19.20;99.90
11152;DHT22;5630;49.342;10.802;2022-10-31T11:43:57;19.40;99.90
11152;DHT22;5630;49.342;10.802;2022-10-31T11:46:35;19.40;99.90
11152;DHT22;5630;49.342;10.802;2022-10-31T11:49:03;19.50;99.90
11152;DHT22;5630;49.342;10.802;2022-10-31T11:51:33;19.50;99.90
11152;DHT22;5630;49.342;10.802;2022-10-31T11:54:01;19.50;99.90
11152;DHT22;5630;49.342;10.802;2022-10-31T11:56:42;19.50;99.90
11152;DHT22;5630;49.342;10.802;2022-10-31T11:59:37;19.50;99.90
11152;DHT22;5630;49.342;10.802;2022-10-31T12:02:18;19.50;99.90
11152;DHT22;5630;49.342;10.802;2022-10-31T12:04:48;19.60;99.90
11152;DHT22;5630;49.342;10.802;2022-10-31T12:07:16;19.60;99.90
11152;DHT22;5630;49.342;10.802;2022-10-31T12:09:41;19.60;99.90
11152;DHT22;5630;49.342;10.802;2022-10-31T12:12:47;19.60;99.90
11152;DHT22;5630;49.342;10.802;2022-10-31T12:26:14;19.60;99.90
11152;DHT22;5630;49.342;10.802;2022-10-31T12:29:10;19.60;99.90
11152;DHT22;5630;49.342;10.802;2022-10-31T12:32:20;19.60;99.90
11152;DHT22;5630;49.342;10.802;2022-10-31T12:38:21;19.60;99.90
11152;DHT22;5630;49.342;10.802;2022-10-31T12:43:36;19.50;99.90
11152;DHT22;5630;49.342;10.802;2022-10-31T12:49:22;19.50;99.90
11152;DHT22;5630;49.342;10.802;2022-10-31T12:55:01;19.50;99.90
11152;DHT22;5630;49.342;10.802;2022-10-31T12:57:44;19.50;99.90
11152;DHT22;5630;49.342;10.802;2022-10-31T13:00:15;19.50;99.90
11152;DHT22;5630;49.342;10.802;2022-10-31T13:05:26;19.40;99.90
11152;DHT22;5630;49.342;10.802;2022-10-31T13:08:04;19.40;99.90
11152;DHT22;5630;49.342;10.802;2022-10-31T13:10:40;19.40;99.90
11152;DHT22;5630;49.342;10.802;2022-10-31T13:13:25;19.40;99.90
11152;DHT22;5630;49.342;10.802;2022-10-31T13:15:57;19.40;99.90
11152;DHT22;5630;49.342;10.802;2022-10-31T13:18:52;19.40;99.90
11152;DHT22;5630;49.342;10.802;2022-10-31T13:21:44;19.40;99.90
11152;DHT22;5630;49.342;10.802;2022-10-31T13:24:20;19.40;99.90
11152;DHT22;5630;49.342;10.802;2022-10-31T13:26:53;19.40;99.90
11152;DHT22;5630;49.342;10.802;2022-10-31T13:29:36;19.40;99.90
11152;DHT22;5630;49.342;10.802;2022-10-31T13:32:05;19.40;99.90
11152;DHT22;5630;49.342;10.802;2022-10-31T13:34:39;19.40;99.90
11152;DHT22;5630;49.342;10.802;2022-10-31T13:40:06;19.50;99.90
11152;DHT22;5630;49.342;10.802;2022-10-31T13:42:50;19.50;99.90
11152;DHT22;5630;49.342;10.802;2022-10-31T13:45:21;19.50;99.90
11152;DHT22;5630;49.342;10.802;2022-10-31T13:47:57;19.50;99.90
11152;DHT22;5630;49.342;10.802;2022-10-31T13:50:31;19.50;99.90
11152;DHT22;5630;49.342;10.802;2022-10-31T13:55:46;19.40;99.90
11152;DHT22;5630;49.342;10.802;2022-10-31T13:58:29;19.40;99.90
11152;DHT22;5630;49.342;10.802;2022-10-31T14:03:38;19.30;99.90
11152;DHT22;5630;49.342;10.802;2022-10-31T14:06:05;19.40;99.90
11152;DHT22;5630;49.342;10.802;2022-10-31T14:08:35;19.30;99.90
11152;DHT22;5630;49.342;10.802;2022-10-31T14:11:01;19.30;99.90
11152;DHT22;5630;49.342;10.802;2022-10-31T14:13:41;19.20;99.90
11152;DHT22;5630;49.342;10.802;2022-10-31T14:16:22;19.20;99.90
11152;DHT22;5630;49.342;10.802;2022-10-31T14:19:35;19.10;99.90
11152;DHT22;5630;49.342;10.802;2022-10-31T14:21:42;19.10;99.90
11152;DHT22;5630;49.342;10.802;2022-10-31T14:27:29;19.00;99.90
11152;DHT22;5630;49.342;10.802;2022-10-31T14:29:49;19.00;99.90
11152;DHT22;5630;49.342;10.802;2022-10-31T14:32:20;18.90;99.90
11152;DHT22;5630;49.342;10.802;2022-10-31T14:37:44;18.80;99.90
11152;DHT22;5630;49.342;10.802;2022-10-31T14:51:47;18.60;99.90
11152;DHT22;5630;49.342;10.802;2022-10-31T14:54:19;18.70;99.90
11152;DHT22;5630;49.342;10.802;2022-10-31T14:56:53;18.70;99.90
11152;DHT22;5630;49.342;10.802;2022-10-31T14:59:28;18.70;99.90
11152;DHT22;5630;49.342;10.802;2022-10-31T15:02:09;18.70;99.90
11152;DHT22;5630;49.342;10.802;2022-10-31T15:04:36;18.70;99.90
11152;DHT22;5630;49.342;10.802;2022-10-31T15:07:08;18.60;99.90
11152;DHT22;5630;49.342;10.802;2022-10-31T15:09:36;18.50;99.90
11152;DHT22;5630;49.342;10.802;2022-10-31T15:14:49;18.40;99.90
11152;DHT22;5630;49.342;10.802;2022-10-31T15:17:15;18.30;99.90
11152;DHT22;5630;49.342;10.802;2022-10-31T15:19:42;18.30;99.90
11152;DHT22;5630;49.342;10.802;2022-10-31T15:22:17;18.30;99.90
11152;DHT22;5630;49.342;10.802;2022-10-31T15:24:43;18.20;99.90
11152;DHT22;5630;49.342;10.802;2022-10-31T15:27:15;18.10;99.90
11152;DHT22;5630;49.342;10.802;2022-10-31T15:29:52;18.10;99.90
11152;DHT22;5630;49.342;10.802;2022-10-31T15:32:36;18.00;99.90
11152;DHT22;5630;49.342;10.802;2022-10-31T15:35:09;18.00;99.90
11152;DHT22;5630;49.342;10.802;2022-10-31T15:37:35;17.90;99.90
11152;DHT22;5630;49.342;10.802;2022-10-31T15:40:12;17.80;99.90
11152;DHT22;5630;49.342;10.802;2022-10-31T15:42:42;17.80;99.90
11152;DHT22;5630;49.342;10.802;2022-10-31T15:47:37;17.70;99.90
11152;DHT22;5630;49.342;10.802;2022-10-31T15:50:06;17.60;99.90
11152;DHT22;5630;49.342;10.802;2022-10-31T15:52:44;17.60;99.90
11152;DHT22;5630;49.342;10.802;2022-10-31T15:57:43;17.50;99.90
11152;DHT22;5630;49.342;10.802;2022-10-31T16:00:27;17.50;99.90
11152;DHT22;5630;49.342;10.802;2022-10-31T16:05:55;17.30;99.90
11152;DHT22;5630;49.342;10.802;2022-10-31T16:08:45;17.30;99.90
11152;DHT22;5630;49.342;10.802;2022-10-31T16:16:18;17.20;99.90
11152;DHT22;5630;49.342;10.802;2022-10-31T16:18:45;17.10;99.90
11152;DHT22;5630;49.342;10.802;2022-10-31T16:21:12;17.00;99.90
11152;DHT22;5630;49.342;10.802;2022-10-31T16:23:44;16.90;99.90
11152;DHT22;5630;49.342;10.802;2022-10-31T16:26:16;16.90;99.90
11152;DHT22;5630;49.342;10.802;2022-10-31T16:28:54;16.80;99.90
11152;DHT22;5630;49.342;10.802;2022-10-31T16:31:47;16.70;99.90
11152;DHT22;5630;49.342;10.802;2022-10-31T16:34:20;16.70;99.90
11152;DHT22;5630;49.342;10.802;2022-10-31T16:36:45;16.60;99.90
11152;DHT22;5630;49.342;10.802;2022-10-31T16:39:11;16.50;99.90
11152;DHT22;5630;49.342;10.802;2022-10-31T16:41:41;16.40;99.90
11152;DHT22;5630;49.342;10.802;2022-10-31T16:44:27;16.40;99.90
11152;DHT22;5630;49.342;10.802;2022-10-31T16:47:13;16.30;99.90
11152;DHT22;5630;49.342;10.802;2022-10-31T16:49:39;16.30;99.90
11152;DHT22;5630;49.342;10.802;2022-10-31T16:54:31;16.10;99.90
11152;DHT22;5630;49.342;10.802;2022-10-31T16:57:02;16.10;99.90
11152;DHT22;5630;49.342;10.802;2022-10-31T16:59:29;16.00;99.90
11152;DHT22;5630;49.342;10.802;2022-10-31T17:01:55;15.90;99.90
11152;DHT22;5630;49.342;10.802;2022-10-31T17:04:21;15.90;99.90
11152;DHT22;5630;49.342;10.802;2022-10-31T17:06:47;15.90;99.90
11152;DHT22;5630;49.342;10.802;2022-10-31T17:09:12;15.90;99.90
11152;DHT22;5630;49.342;10.802;2022-10-31T17:11:46;15.80;99.90
11152;DHT22;5630;49.342;10.802;2022-10-31T17:14:12;15.80;99.90
11152;DHT22;5630;49.342;10.802;2022-10-31T17:16:38;15.70;99.90
11152;DHT22;5630;49.342;10.802;2022-10-31T17:19:04;15.70;99.90
11152;DHT22;5630;49.342;10.802;2022-10-31T17:21:30;15.60;99.90
11152;DHT22;5630;49.342;10.802;2022-10-31T17:23:55;15.50;99.90
11152;DHT22;5630;49.342;10.802;2022-10-31T17:26:21;15.50;99.90
11152;DHT22;5630;49.342;10.802;2022-10-31T17:28:47;15.40;99.90
11152;DHT22;5630;49.342;10.802;2022-10-31T17:31:34;15.40;99.90
11152;DHT22;5630;49.342;10.802;2022-10-31T17:34:03;15.30;99.90
11152;DHT22;5630;49.342;10.802;2022-10-31T17:36:31;15.20;99.90
11152;DHT22;5630;49.342;10.802;2022-10-31T17:38:58;15.20;99.90
11152;DHT22;5630;49.342;10.802;2022-10-31T17:41:24;15.10;99.90
11152;DHT22;5630;49.342;10.802;2022-10-31T17:43:56;15.10;99.90
11152;DHT22;5630;49.342;10.802;2022-10-31T17:46:22;15.00;99.90
11152;DHT22;5630;49.342;10.802;2022-10-31T17:48:48;14.90;99.90
11152;DHT22;5630;49.342;10.802;2022-10-31T17:51:13;14.90;99.90
11152;DHT22;5630;49.342;10.802;2022-10-31T17:53:39;14.80;99.90
11152;DHT22;5630;49.342;10.802;2022-10-31T17:56:08;14.80;99.90